Time;durP1;ratioP1;P1;durP2;ratioP2;P2;SDS_P1;SDS_P2;PMS_P1;PMS_P2;Temp;Humidity;BMP_temperature;BMP_pressure;BME280_temperature;BME280_humidity;BME280_pressure;Samples;Min_cycle;Max_cycle;Signal;HPM_P1;HPM_P2
2022/03/08 00:00:35;;;;;;;10.68;6.57;;;2.40;99.90;;;;;;5012355;28;20129;-82
2022/03/08 00:03:05;;;;;;;9.40;5.95;;;2.30;99.90;;;;;;5030419;28;20057;-82
2022/03/08 00:05:31;;;;;;;8.82;5.50;;;2.30;99.90;;;;;;4994671;28;20084;-82
2022/03/08 00:08:01;;;;;;;6.90;5.55;;;2.30;99.90;;;;;;4994289;28;20073;-82
2022/03/08 00:10:30;;;;;;;11.02;6.35;;;;;;;;;;5016716;28;20041;-83
2022/03/08 00:12:58;;;;;;;10.80;6.60;;;;;;;;;;5023426;28;20355;-82
2022/03/08 00:15:26;;;;;;;8.27;5.47;;;;;;;;;;5010527;28;20147;-82
2022/03/08 00:17:58;;;;;;;;;;;;;;;;;;5045020;28;20091;-82
2022/03/08 00:20:24;;;;;;;8.52;5.35;;;2.30;99.90;;;;;;5045162;28;19968;-83
2022/03/08 00:22:50;;;;;;;9.13;6.03;;;2.30;99.90;;;;;;5006932;28;20045;-82
2022/03/08 00:25:26;;;;;;;8.48;6.05;;;2.30;99.90;;;;;;5013713;28;20083;-82
2022/03/08 00:27:52;;;;;;;11.48;6.63;;;2.30;99.90;;;;;;5020502;28;20041;-82
2022/03/08 00:30:20;;;;;;;9.18;5.72;;;2.30;99.90;;;;;;5026585;28;20108;-82
2022/03/08 00:32:52;;;;;;;8.35;6.28;;;2.20;99.90;;;;;;5022896;28;20377;-82
2022/03/08 00:35:19;;;;;;;9.55;6.35;;;2.20;99.90;;;;;;5004253;28;20465;-82
2022/03/08 00:37:49;;;;;;;7.93;5.93;;;2.20;99.90;;;;;;5021063;28;20656;-83
2022/03/08 00:40:20;;;;;;;11.75;6.88;;;2.20;99.90;;;;;;5029691;28;20091;-86
2022/03/08 00:42:46;;;;;;;10.80;6.63;;;2.20;99.90;;;;;;5036273;28;20137;-85
2022/03/08 00:45:18;;;;;;;14.40;6.43;;;2.10;99.90;;;;;;5012564;28;20657;-86
2022/03/08 00:47:45;;;;;;;7.82;6.15;;;2.20;99.90;;;;;;5027363;28;20072;-85
2022/03/08 00:50:19;;;;;;;13.60;6.00;;;2.20;99.90;;;;;;4998743;28;20119;-86
2022/03/08 00:52:46;;;;;;;9.80;6.18;;;2.20;99.90;;;;;;5029667;28;20132;-86
2022/03/08 00:55:13;;;;;;;11.75;7.80;;;2.10;99.90;;;;;;4996276;28;20112;-85
2022/03/08 00:57:40;;;;;;;9.13;5.47;;;2.10;99.90;;;;;;5038527;28;20194;-86
2022/03/08 01:00:08;;;;;;;9.18;6.50;;;;;;;;;;5015880;28;20533;-86
2022/03/08 01:02:35;;;;;;;7.47;5.90;;;;;;;;;;5013403;28;20045;-86
2022/03/08 01:05:04;;;;;;;10.93;6.15;;;;;;;;;;5028476;28;20046;-86
2022/03/08 01:07:30;;;;;;;8.10;6.30;;;;;;;;;;5030819;28;20037;-86
2022/03/08 01:09:56;;;;;;;8.30;5.97;;;2.00;99.90;;;;;;5006703;28;20118;-86
2022/03/08 01:12:23;;;;;;;10.35;6.93;;;2.00;99.90;;;;;;4981324;28;20048;-86
2022/03/08 01:14:49;;;;;;;11.40;6.25;;;1.90;99.90;;;;;;4978940;28;20045;-86
2022/03/08 01:17:14;;;;;;;10.10;6.07;;;1.90;99.90;;;;;;5058926;28;20063;-86
2022/03/08 01:19:40;;;;;;;10.25;6.88;;;1.90;99.90;;;;;;4993407;28;20050;-86
2022/03/08 01:22:06;;;;;;;10.38;5.72;;;1.90;99.90;;;;;;4963763;28;20408;-85
2022/03/08 01:24:34;;;;;;;10.02;5.78;;;1.80;99.90;;;;;;4997458;28;20045;-86
2022/03/08 01:27:04;;;;;;;9.50;6.05;;;1.90;99.90;;;;;;5028558;28;20053;-86
2022/03/08 01:29:31;;;;;;;12.85;6.78;;;1.80;99.90;;;;;;4978372;28;20118;-86
2022/03/08 01:31:58;;;;;;;7.93;6.13;;;1.80;99.90;;;;;;5006960;28;20048;-86
2022/03/08 01:34:24;;;;;;;8.55;6.38;;;1.80;99.90;;;;;;5009430;28;20081;-86
2022/03/08 01:36:50;;;;;;;9.82;5.95;;;1.80;99.90;;;;;;5009135;28;20081;-86
2022/03/08 01:39:16;;;;;;;9.10;6.32;;;1.80;99.90;;;;;;5024704;28;20088;-86
2022/03/08 01:41:42;;;;;;;11.43;6.18;;;1.70;99.90;;;;;;5013422;28;20049;-86
2022/03/08 01:44:12;;;;;;;10.82;6.63;;;1.80;99.90;;;;;;4981246;28;20041;-86
2022/03/08 01:46:40;;;;;;;8.60;5.88;;;1.70;99.90;;;;;;5017796;28;20037;-86
2022/03/08 01:49:09;;;;;;;10.70;6.85;;;1.70;99.90;;;;;;4989959;28;20081;-85
2022/03/08 01:51:42;;;;;;;10.15;6.88;;;1.70;99.90;;;;;;5027885;28;20061;-85
2022/03/08 01:54:10;;;;;;;10.35;7.07;;;1.70;99.90;;;;;;5028142;28;20116;-86
2022/03/08 01:56:36;;;;;;;9.23;6.60;;;1.70;99.90;;;;;;4996416;28;21314;-86
2022/03/08 01:59:03;;;;;;;12.85;6.78;;;1.70;99.90;;;;;;4999828;28;20521;-86
2022/03/08 02:01:29;;;;;;;12.18;6.35;;;1.60;99.90;;;;;;5025405;28;20049;-86
2022/03/08 02:03:55;;;;;;;11.65;7.15;;;1.70;99.90;;;;;;4978095;28;20042;-86
2022/03/08 02:06:21;;;;;;;11.23;6.63;;;1.60;99.90;;;;;;4981612;28;20182;-86
2022/03/08 02:08:49;;;;;;;12.57;6.43;;;1.60;99.90;;;;;;4998013;28;20050;-85
2022/03/08 02:11:15;;;;;;;10.45;6.28;;;1.70;99.90;;;;;;4991383;28;20088;-86
2022/03/08 02:13:44;;;;;;;10.30;6.38;;;1.60;99.90;;;;;;5016808;28;20053;-86
2022/03/08 02:16:11;;;;;;;10.73;6.63;;;1.60;99.90;;;;;;5014126;28;20617;-85
2022/03/08 02:18:37;;;;;;;13.70;7.43;;;1.60;99.90;;;;;;4996405;28;20060;-85
2022/03/08 02:21:08;;;;;;;15.88;7.38;;;1.60;99.90;;;;;;5039538;28;20041;-86
2022/03/08 02:23:34;;;;;;;10.82;6.45;;;1.60;99.90;;;;;;5011247;28;20107;-86
2022/03/08 02:26:01;;;;;;;11.73;6.68;;;1.60;99.90;;;;;;5011825;28;20060;-86
2022/03/08 02:28:29;;;;;;;10.35;6.00;;;1.60;99.90;;;;;;5002225;28;20049;-86
2022/03/08 02:30:55;;;;;;;9.20;6.22;;;1.60;99.90;;;;;;5028955;28;20124;-86
2022/03/08 02:33:22;;;;;;;8.75;6.38;;;1.60;99.90;;;;;;5012479;28;20049;-86
2022/03/08 02:35:48;;;;;;;14.40;6.90;;;1.60;99.90;;;;;;5005103;28;20042;-85
2022/03/08 02:38:14;;;;;;;10.68;6.20;;;1.60;99.90;;;;;;5027958;28;20634;-86
2022/03/08 02:40:43;;;;;;;12.88;6.50;;;1.60;99.90;;;;;;5000883;28;20041;-85
2022/03/08 02:43:11;;;;;;;12.80;6.55;;;1.60;99.90;;;;;;5024501;28;20060;-85
2022/03/08 02:45:38;;;;;;;12.68;7.00;;;;;;;;;;5019287;28;20359;-85
2022/03/08 02:48:04;;;;;;;11.27;6.53;;;;;;;;;;5020260;28;20046;-86
2022/03/08 02:50:36;;;;;;;13.60;7.78;;;1.60;99.90;;;;;;5032274;28;20045;-86
2022/03/08 02:53:05;;;;;;;9.68;6.10;;;1.50;99.90;;;;;;5006243;28;20509;-86
2022/03/08 02:55:32;;;;;;;14.35;7.78;;;1.50;99.90;;;;;;5021783;28;20049;-86
2022/03/08 02:57:59;;;;;;;14.05;7.55;;;1.50;99.90;;;;;;5008707;28;20049;-86
2022/03/08 03:00:27;;;;;;;9.25;5.68;;;1.60;99.90;;;;;;5029578;28;20044;-86
2022/03/08 03:02:56;;;;;;;11.57;7.90;;;1.50;99.90;;;;;;5006614;28;20048;-85
2022/03/08 03:05:25;;;;;;;11.02;7.22;;;1.50;99.90;;;;;;5014322;28;20044;-86
2022/03/08 03:07:51;;;;;;;11.52;7.82;;;1.50;99.90;;;;;;5007383;28;20148;-86
2022/03/08 03:10:20;;;;;;;15.30;7.20;;;1.40;99.90;;;;;;4996940;28;20521;-86
2022/03/08 03:12:47;;;;;;;9.70;6.82;;;1.40;99.90;;;;;;5007160;28;20055;-86
2022/03/08 03:15:15;;;;;;;10.00;6.47;;;1.40;99.90;;;;;;4981575;28;20408;-86
2022/03/08 03:17:47;;;;;;;10.35;7.13;;;1.40;99.90;;;;;;5015000;28;20053;-86
2022/03/08 03:20:14;;;;;;;14.35;7.82;;;;;;;;;;5029290;28;20687;-86
2022/03/08 03:22:41;;;;;;;13.73;7.20;;;;;;;;;;4986839;28;20208;-86
2022/03/08 03:25:07;;;;;;;11.30;7.00;;;;;;;;;;5014391;28;20393;-86
2022/03/08 03:27:34;;;;;;;13.57;8.13;;;;;;;;;;5008480;28;20045;-86
2022/03/08 03:30:03;;;;;;;9.95;7.10;;;;;;;;;;5025011;28;20053;-86
2022/03/08 03:32:46;;;;;;;9.93;6.37;;;;;;;;;;5012714;28;20485;-86
2022/03/08 03:35:16;;;;;;;11.32;7.47;;;;;;;;;;4992637;28;20057;-86
2022/03/08 03:37:42;;;;;;;14.20;9.05;;;;;;;;;;5017807;28;20128;-86
2022/03/08 03:40:09;;;;;;;12.35;7.50;;;;;;;;;;5021386;28;20134;-86
2022/03/08 03:42:35;;;;;;;10.80;7.20;;;;;;;;;;4996922;28;20056;-86
2022/03/08 03:45:02;;;;;;;13.77;7.00;;;;;;;;;;5010835;28;20048;-86
2022/03/08 03:47:31;;;;;;;15.50;9.30;;;;;;;;;;5018274;28;20076;-85
2022/03/08 03:49:57;;;;;;;11.60;8.23;;;;;;;;;;4993270;28;20108;-86
2022/03/08 03:52:23;;;;;;;12.98;7.97;;;;;;;;;;5034403;28;20052;-86
2022/03/08 03:54:49;;;;;;;13.23;7.40;;;;;;;;;;5024681;28;20077;-86
2022/03/08 03:57:16;;;;;;;13.75;7.55;;;;;;;;;;5018250;28;20112;-86
2022/03/08 03:59:42;;;;;;;10.30;7.10;;;;;;;;;;5013390;28;20061;-86
2022/03/08 04:02:08;;;;;;;12.88;7.88;;;;;;;;;;4995581;28;20534;-86
2022/03/08 04:04:35;;;;;;;13.65;7.60;;;;;;;;;;5012470;28;20137;-86
2022/03/08 04:07:01;;;;;;;13.38;8.15;;;;;;;;;;5033261;28;20045;-86
2022/03/08 04:09:27;;;;;;;14.07;8.88;;;;;;;;;;5029095;28;20128;-86
2022/03/08 04:11:56;;;;;;;11.80;8.15;;;1.50;99.90;;;;;;5032630;28;20422;-86
2022/03/08 04:14:22;;;;;;;13.02;7.85;;;;;;;;;;5010811;28;20112;-86
2022/03/08 04:16:50;;;;;;;14.48;9.25;;;;;;;;;;4996867;28;20073;-86
2022/03/08 04:19:17;;;;;;;19.27;9.50;;;;;;;;;;5012706;28;20381;-86
2022/03/08 04:21:43;;;;;;;16.17;9.80;;;;;;;;;;5020759;28;20049;-86
2022/03/08 04:24:15;;;;;;;14.25;8.82;;;;;;;;;;5037850;28;20134;-85
2022/03/08 04:26:41;;;;;;;16.15;9.15;;;;;;;;;;4995223;28;20605;-85
2022/03/08 04:29:07;;;;;;;15.88;9.40;;;;;;;;;;5036115;28;20061;-85
2022/03/08 04:31:33;;;;;;;15.25;8.00;;;;;;;;;;5010027;28;20136;-85
2022/03/08 04:34:03;;;;;;;16.10;9.23;;;;;;;;;;5029859;28;20053;-85
2022/03/08 04:36:35;;;;;;;16.77;9.63;;;;;;;;;;5028784;28;20400;-85
2022/03/08 04:39:01;;;;;;;15.02;9.95;;;;;;;;;;4975691;28;20077;-85
2022/03/08 04:41:28;;;;;;;18.75;9.88;;;;;;;;;;5016415;28;20522;-86
2022/03/08 04:43:54;;;;;;;16.77;8.75;;;;;;;;;;5035642;28;20135;-85
2022/03/08 04:46:20;;;;;;;13.30;8.98;;;1.20;99.90;;;;;;4991608;28;20077;-85
2022/03/08 04:48:47;;;;;;;16.92;10.65;;;1.10;99.90;;;;;;4988325;28;20045;-85
2022/03/08 04:51:19;;;;;;;16.42;10.35;;;1.10;99.90;;;;;;5012655;28;20045;-83
2022/03/08 04:53:45;;;;;;;17.00;9.90;;;1.10;99.90;;;;;;5000011;28;20121;-83
2022/03/08 04:56:11;;;;;;;16.17;10.32;;;1.10;99.90;;;;;;5015853;28;20125;-83
2022/03/08 04:58:43;;;;;;;14.77;9.35;;;1.20;99.90;;;;;;5012653;28;20085;-83
2022/03/08 05:01:15;;;;;;;17.52;10.52;;;1.10;99.90;;;;;;5006479;28;20076;-83
2022/03/08 05:03:44;;;;;;;20.17;11.25;;;1.00;99.90;;;;;;4994512;28;20056;-83
2022/03/08 05:06:16;;;;;;;15.93;10.15;;;1.00;99.90;;;;;;4981593;28;20038;-83
2022/03/08 05:08:47;;;;;;;16.75;11.05;;;1.10;99.90;;;;;;4994829;28;20037;-83
2022/03/08 05:11:17;;;;;;;16.10;9.45;;;1.00;99.90;;;;;;5000997;28;20057;-83
2022/03/08 05:13:45;;;;;;;18.33;10.85;;;1.00;99.90;;;;;;4992732;28;20069;-85
2022/03/08 05:16:11;;;;;;;14.82;9.80;;;1.00;99.90;;;;;;5010574;28;20085;-85
2022/03/08 05:18:36;;;;;;;18.20;10.85;;;1.00;99.90;;;;;;5000293;28;20524;-85
2022/03/08 05:21:05;;;;;;;20.17;10.82;;;1.00;99.90;;;;;;4999968;28;20144;-85
2022/03/08 05:23:32;;;;;;;16.83;9.93;;;1.00;99.90;;;;;;5015569;28;20501;-85
2022/03/08 05:25:58;;;;;;;15.50;11.07;;;1.00;99.90;;;;;;4999202;28;20052;-85
2022/03/08 05:28:24;;;;;;;14.80;9.48;;;1.00;99.90;;;;;;5001667;28;20049;-85
2022/03/08 05:30:50;;;;;;;16.70;10.10;;;0.90;99.90;;;;;;5012061;28;20077;-85
2022/03/08 05:33:20;;;;;;;16.60;10.02;;;0.90;99.90;;;;;;5011877;28;20064;-85
2022/03/08 05:35:46;;;;;;;15.77;10.27;;;0.90;99.90;;;;;;4996499;28;20044;-85
2022/03/08 05:38:13;;;;;;;18.23;10.50;;;0.90;99.90;;;;;;5002342;28;20046;-85
2022/03/08 05:40:42;;;;;;;15.70;10.38;;;0.90;99.90;;;;;;4999675;28;20115;-84
2022/03/08 05:43:07;;;;;;;17.13;10.60;;;0.90;99.90;;;;;;5013158;28;20043;-84
2022/03/08 05:45:34;;;;;;;15.77;10.68;;;0.90;99.90;;;;;;5035621;28;20413;-84
2022/03/08 05:48:01;;;;;;;17.30;10.88;;;0.90;99.90;;;;;;5033546;28;20048;-82
2022/03/08 05:50:27;;;;;;;16.38;10.80;;;0.80;99.90;;;;;;5036889;28;20136;-82
2022/03/08 05:53:06;;;;;;;16.85;11.07;;;0.90;99.90;;;;;;4994723;28;20466;-83
2022/03/08 05:55:35;;;;;;;18.83;11.93;;;0.90;99.90;;;;;;5015531;28;20536;-81
2022/03/08 05:58:00;;;;;;;21.63;11.32;;;0.80;99.90;;;;;;5021711;28;20063;-83
2022/03/08 06:00:26;;;;;;;18.88;11.05;;;0.80;99.90;;;;;;5033961;28;20061;-81
2022/03/08 06:02:52;;;;;;;15.38;10.30;;;0.80;99.90;;;;;;5030435;28;20605;-82
2022/03/08 06:05:18;;;;;;;20.35;12.65;;;0.80;99.90;;;;;;5034707;28;20034;-82
2022/03/08 06:07:44;;;;;;;19.15;9.93;;;0.80;99.90;;;;;;5014862;28;20528;-82
2022/03/08 06:10:16;;;;;;;18.65;11.55;;;0.80;99.90;;;;;;5009644;28;20061;-84
2022/03/08 06:12:44;;;;;;;18.05;12.50;;;0.80;99.90;;;;;;5009672;28;20187;-84
2022/03/08 06:15:11;;;;;;;16.88;10.45;;;0.80;99.90;;;;;;5045031;28;20089;-85
2022/03/08 06:17:37;;;;;;;18.13;11.32;;;0.80;99.90;;;;;;5013568;28;20049;-85
2022/03/08 06:20:07;;;;;;;16.65;11.40;;;0.80;99.90;;;;;;5021574;28;20042;-85
2022/03/08 06:22:33;;;;;;;19.08;10.50;;;0.80;99.90;;;;;;5025979;28;20056;-84
2022/03/08 06:24:59;;;;;;;17.67;11.00;;;0.80;99.90;;;;;;4994377;28;20037;-85
2022/03/08 06:27:24;;;;;;;18.48;12.25;;;0.80;99.90;;;;;;4979949;28;20375;-84
2022/03/08 06:29:51;;;;;;;17.08;11.15;;;0.80;99.90;;;;;;5030839;28;20577;-84
2022/03/08 06:32:23;;;;;;;19.05;11.88;;;0.80;99.90;;;;;;5030465;28;20041;-83
2022/03/08 06:34:52;;;;;;;18.85;11.48;;;0.80;99.90;;;;;;5021243;28;20111;-83
2022/03/08 06:37:18;;;;;;;21.63;10.85;;;0.80;99.90;;;;;;5011054;28;20046;-83
2022/03/08 06:39:46;;;;;;;19.25;10.38;;;0.90;99.90;;;;;;5005350;28;20425;-83
2022/03/08 06:42:12;;;;;;;20.13;10.95;;;0.90;99.90;;;;;;5024462;28;20045;-83
2022/03/08 06:44:44;;;;;;;16.55;11.07;;;0.90;99.90;;;;;;4992020;28;20054;-84
2022/03/08 06:47:10;;;;;;;13.60;10.45;;;0.80;99.90;;;;;;4999125;28;20128;-83
2022/03/08 06:49:40;;;;;;;17.58;10.30;;;0.90;99.90;;;;;;5015198;28;20053;-83
2022/03/08 06:52:10;;;;;;;17.48;10.93;;;0.90;99.90;;;;;;5009061;28;20044;-83
2022/03/08 06:54:37;;;;;;;18.35;10.85;;;0.90;99.90;;;;;;5029882;28;20845;-83
2022/03/08 06:57:05;;;;;;;16.23;10.57;;;0.90;99.90;;;;;;5029311;28;20233;-85
2022/03/08 06:59:34;;;;;;;17.02;10.35;;;1.00;99.90;;;;;;5024447;28;20150;-85
2022/03/08 07:02:00;;;;;;;17.10;11.35;;;1.00;99.90;;;;;;4995920;28;20103;-85
2022/03/08 07:04:26;;;;;;;14.88;10.45;;;1.00;99.90;;;;;;4997840;28;20060;-82
2022/03/08 07:06:52;;;;;;;16.70;10.40;;;1.10;99.90;;;;;;5010297;28;20048;-83
2022/03/08 07:09:18;;;;;;;19.70;11.13;;;1.10;99.90;;;;;;5010942;28;20057;-83
2022/03/08 07:11:43;;;;;;;15.73;9.73;;;1.20;99.90;;;;;;5016346;28;20520;-83
2022/03/08 07:14:15;;;;;;;15.90;10.80;;;1.00;99.90;;;;;;5029118;28;20053;-83
2022/03/08 07:16:50;;;;;;;14.60;9.70;;;1.10;99.90;;;;;;5016785;28;20045;-83
2022/03/08 07:19:22;;;;;;;15.23;9.20;;;1.10;99.90;;;;;;5005678;28;20168;-83
2022/03/08 07:21:48;;;;;;;21.27;10.07;;;1.20;99.90;;;;;;5008225;28;20048;-83
2022/03/08 07:24:15;;;;;;;17.65;10.98;;;1.20;99.90;;;;;;5012602;28;20405;-83
2022/03/08 07:26:44;;;;;;;19.80;10.30;;;1.20;99.90;;;;;;4983378;28;20052;-82
2022/03/08 07:29:10;;;;;;;14.13;8.80;;;1.20;99.90;;;;;;5024040;28;20048;-82
2022/03/08 07:31:38;;;;;;;17.75;11.25;;;1.20;99.90;;;;;;5013191;28;20063;-82
2022/03/08 07:34:07;;;;;;;14.98;10.10;;;1.20;99.90;;;;;;5009151;28;20037;-83
2022/03/08 07:36:34;;;;;;;15.23;9.50;;;1.30;99.90;;;;;;5011352;28;20049;-83
2022/03/08 07:39:00;;;;;;;19.45;10.43;;;1.30;99.90;;;;;;5024659;28;20052;-82
2022/03/08 07:41:29;;;;;;;16.95;10.25;;;1.30;99.90;;;;;;5009359;28;20046;-84
2022/03/08 07:43:55;;;;;;;14.93;9.57;;;1.40;99.90;;;;;;5029664;28;20393;-82
2022/03/08 07:46:21;;;;;;;14.88;9.73;;;1.40;99.90;;;;;;5028700;28;20059;-83
2022/03/08 07:48:48;;;;;;;16.33;9.80;;;1.40;99.90;;;;;;5007947;28;20085;-82
2022/03/08 07:51:17;;;;;;;15.50;9.07;;;1.50;99.90;;;;;;5023913;28;20045;-82
2022/03/08 07:53:45;;;;;;;16.58;10.00;;;1.60;99.90;;;;;;5019942;28;20045;-83
2022/03/08 07:56:11;;;;;;;19.88;9.68;;;1.50;99.90;;;;;;5010757;28;20068;-83
2022/03/08 07:58:40;;;;;;;17.02;9.75;;;1.60;99.90;;;;;;5010796;28;20524;-83
2022/03/08 08:01:07;;;;;;;13.95;9.45;;;1.70;99.90;;;;;;5010484;28;20049;-83
2022/03/08 08:03:41;;;;;;;13.35;9.07;;;1.70;99.90;;;;;;5028443;28;20060;-83
2022/03/08 08:06:10;;;;;;;15.93;9.38;;;1.70;99.90;;;;;;5025423;28;20037;-83
2022/03/08 08:08:39;;;;;;;13.73;8.50;;;1.80;99.90;;;;;;5021548;28;20128;-83
2022/03/08 08:11:06;;;;;;;13.82;8.85;;;1.90;99.90;;;;;;5023396;28;20052;-83
2022/03/08 08:13:35;;;;;;;13.82;9.95;;;1.90;99.90;;;;;;5017790;28;20372;-83
2022/03/08 08:16:01;;;;;;;16.30;9.88;;;1.90;99.90;;;;;;5006106;28;20057;-86
2022/03/08 08:18:26;;;;;;;11.95;8.50;;;2.00;99.90;;;;;;5025335;28;20041;-86
2022/03/08 08:20:52;;;;;;;13.55;9.10;;;2.10;99.90;;;;;;4960589;28;20052;-86
2022/03/08 08:23:18;;;;;;;11.57;7.85;;;2.20;99.90;;;;;;5011398;28;20136;-87
2022/03/08 08:25:44;;;;;;;15.77;8.63;;;2.20;99.90;;;;;;4995033;28;20045;-87
2022/03/08 08:28:13;;;;;;;14.82;10.40;;;2.30;99.90;;;;;;4978668;28;20191;-89
2022/03/08 08:30:39;;;;;;;13.38;8.77;;;2.40;99.90;;;;;;5008547;28;20057;-88
2022/03/08 08:33:05;;;;;;;12.23;8.30;;;2.40;99.90;;;;;;4991920;28;20045;-89
2022/03/08 08:35:31;;;;;;;15.52;9.40;;;2.50;99.90;;;;;;4992395;28;20521;-86
2022/03/08 08:37:59;;;;;;;13.95;8.65;;;2.60;99.90;;;;;;4973008;28;20065;-85
2022/03/08 08:40:25;;;;;;;14.85;8.80;;;2.70;99.90;;;;;;4989542;28;20088;-87
2022/03/08 08:42:51;;;;;;;14.30;8.45;;;2.70;99.90;;;;;;5001555;28;20147;-85
2022/03/08 08:45:17;;;;;;;12.55;8.93;;;;;;;;;;4972334;28;20060;-85
2022/03/08 08:47:44;;;;;;;13.45;7.60;;;;;;;;;;4975451;28;20052;-86
2022/03/08 08:50:10;;;;;;;12.98;7.80;;;;;;;;;;4989066;28;20144;-87
2022/03/08 08:52:44;;;;;;;13.63;8.38;;;2.80;99.90;;;;;;4990609;28;20045;-87
2022/03/08 08:55:10;;;;;;;13.13;8.82;;;;;;;;;;4994821;28;20773;-87
2022/03/08 08:57:40;;;;;;;13.88;7.93;;;;;;;;;;5017722;28;20312;-86
2022/03/08 09:00:07;;;;;;;10.43;6.60;;;;;;;;;;5005388;28;20062;-87
2022/03/08 09:02:34;;;;;;;12.20;7.38;;;;;;;;;;4996076;28;20044;-87
2022/03/08 09:05:00;;;;;;;10.63;6.65;;;;;;;;;;4987440;28;20049;-88
2022/03/08 09:07:26;;;;;;;13.90;7.40;;;3.20;99.90;;;;;;5008657;28;20100;-88
2022/03/08 09:09:52;;;;;;;10.23;7.47;;;;;;;;;;4997086;28;20057;-87
2022/03/08 09:12:22;;;;;;;9.93;6.97;;;;;;;;;;5008360;28;20040;-87
2022/03/08 09:14:47;;;;;;;13.07;7.68;;;3.80;99.90;;;;;;4995692;28;20052;-84
2022/03/08 09:17:13;;;;;;;12.00;7.13;;;4.10;99.90;;;;;;4997749;28;20050;-83
2022/03/08 09:19:41;;;;;;;11.10;7.30;;;4.10;99.90;;;;;;5004756;28;20107;-84
2022/03/08 09:22:06;;;;;;;9.88;6.55;;;4.30;99.90;;;;;;5009351;28;20486;-84
2022/03/08 09:24:35;;;;;;;8.63;6.32;;;4.30;99.90;;;;;;5013875;28;20107;-84
2022/03/08 09:27:13;;;;;;;11.88;6.97;;;4.40;99.90;;;;;;5014349;28;20057;-84
2022/03/08 09:29:38;;;;;;;10.57;6.63;;;4.50;99.90;;;;;;5028004;28;20044;-84
2022/03/08 09:32:08;;;;;;;9.80;6.78;;;4.60;99.90;;;;;;5017296;28;20366;-83
2022/03/08 09:34:34;;;;;;;10.00;7.53;;;4.70;99.90;;;;;;5012358;28;20115;-83
2022/03/08 09:36:59;;;;;;;9.50;6.82;;;4.80;99.90;;;;;;5002713;28;20037;-84
2022/03/08 09:39:25;;;;;;;8.90;6.22;;;4.80;99.90;;;;;;5027783;28;20413;-83
2022/03/08 09:41:55;;;;;;;8.70;6.50;;;4.90;99.90;;;;;;5012299;28;20056;-84
2022/03/08 09:44:25;;;;;;;10.32;6.70;;;5.00;99.90;;;;;;5012921;28;20405;-84
2022/03/08 09:46:52;;;;;;;9.45;6.13;;;5.10;99.90;;;;;;5016001;28;20100;-84
2022/03/08 09:49:18;;;;;;;9.02;5.63;;;5.30;99.90;;;;;;4997020;28;20049;-83
2022/03/08 09:51:45;;;;;;;9.65;6.38;;;;;;;;;;5023929;28;20124;-83
2022/03/08 09:54:11;;;;;;;8.50;6.45;;;;;;;;;;5012609;28;20089;-87
2022/03/08 09:56:37;;;;;;;10.68;5.75;;;;;;;;;;5029199;28;20056;-89
2022/03/08 09:59:06;;;;;;;7.60;5.30;;;;;;;;;;5043237;28;20059;-88
2022/03/08 10:01:35;;;;;;;9.88;6.53;;;;;;;;;;5030716;28;20075;-84
2022/03/08 10:04:01;;;;;;;9.55;6.45;;;;;;;;;;5000526;28;20042;-86
2022/03/08 10:06:44;;;;;;;8.00;5.25;;;;;;;;;;5015921;28;20042;-86
2022/03/08 10:09:20;;;;;;;7.65;6.22;;;5.30;99.90;;;;;;5011506;28;20429;-86
2022/03/08 10:11:50;;;;;;;8.43;6.05;;;;;;;;;;4996016;28;20045;-85
2022/03/08 10:14:38;;;;;;;7.88;5.60;;;6.00;96.70;;;;;;5029771;28;20151;-83
2022/03/08 10:17:16;;;;;;;8.20;6.68;;;6.10;96.30;;;;;;5005998;28;20045;-89
2022/03/08 10:19:46;;;;;;;10.27;5.35;;;6.10;95.90;;;;;;5033117;28;20532;-89
2022/03/08 10:22:31;;;;;;;7.63;6.00;;;6.20;94.40;;;;;;5000166;28;20060;-86
2022/03/08 10:25:13;;;;;;;7.15;5.05;;;6.30;90.70;;;;;;5015324;28;20056;-82
2022/03/08 10:28:03;;;;;;;9.57;6.40;;;6.40;91.90;;;;;;5018530;28;20095;-82
2022/03/08 10:30:45;;;;;;;8.35;5.50;;;;;;;;;;5013079;28;20053;-84
2022/03/08 10:33:12;;;;;;;7.50;5.60;;;;;;;;;;4994143;28;20037;-84
2022/03/08 10:35:41;;;;;;;7.45;5.55;;;6.40;93.80;;;;;;5036901;28;20049;-84
2022/03/08 10:38:09;;;;;;;7.22;5.88;;;;;;;;;;5034038;28;20053;-85
2022/03/08 10:40:39;;;;;;;8.27;5.30;;;6.70;94.00;;;;;;4984256;28;20045;-85
2022/03/08 10:43:07;;;;;;;7.85;5.57;;;;;;;;;;5027189;28;20049;-85
2022/03/08 10:45:36;;;;;;;8.50;6.05;;;;;;;;;;5010144;28;20135;-85
2022/03/08 10:48:07;;;;;;;10.57;6.03;;;;;;;;;;4997163;28;20088;-82
2022/03/08 10:50:35;;;;;;;7.15;5.25;;;;;;;;;;5018381;28;20053;-83
2022/03/08 10:53:02;;;;;;;11.45;6.18;;;;;;;;;;5010911;28;20624;-85
2022/03/08 10:55:29;;;;;;;7.22;5.30;;;;;;;;;;5014243;28;20076;-85
2022/03/08 10:57:59;;;;;;;10.95;5.43;;;;;;;;;;5021660;28;20132;-82
2022/03/08 11:00:27;;;;;;;6.47;4.80;;;;;;;;;;5011313;28;20059;-82
2022/03/08 11:02:55;;;;;;;6.43;4.25;;;;;;;;;;5011886;28;20536;-82
2022/03/08 11:05:22;;;;;;;8.73;4.93;;;;;;;;;;5039694;28;20049;-83
2022/03/08 11:07:55;;;;;;;9.68;6.07;;;;;;;;;;5033699;28;20433;-83
2022/03/08 11:10:24;;;;;;;11.15;4.45;;;;;;;;;;4998593;28;20146;-82
2022/03/08 11:12:50;;;;;;;9.18;5.47;;;;;;;;;;5027996;28;20080;-83
2022/03/08 11:15:17;;;;;;;9.30;5.75;;;;;;;;;;5047675;28;20056;-82
2022/03/08 11:17:47;;;;;;;10.23;5.25;;;;;;;;;;5012792;28;20443;-81
2022/03/08 11:20:17;;;;;;;9.07;4.93;;;;;;;;;;5030425;28;20044;-82
2022/03/08 11:22:43;;;;;;;8.27;5.13;;;;;;;;;;5020703;28;20048;-82
2022/03/08 11:25:16;;;;;;;8.10;5.03;;;;;;;;;;4993766;28;20042;-83
2022/03/08 11:27:44;;;;;;;7.60;5.10;;;;;;;;;;5028785;28;20072;-82
2022/03/08 11:30:12;;;;;;;7.53;4.47;;;;;;;;;;5007579;28;20045;-82
2022/03/08 11:32:41;;;;;;;11.38;4.90;;;;;;;;;;4987067;28;20145;-82
2022/03/08 11:35:12;;;;;;;9.20;5.45;;;;;;;;;;5005541;28;20050;-82
2022/03/08 11:37:39;;;;;;;8.52;4.53;;;;;;;;;;5014783;28;20072;-82
2022/03/08 11:40:06;;;;;;;9.13;4.97;;;;;;;;;;4990563;28;20050;-82
2022/03/08 11:42:36;;;;;;;8.60;4.63;;;;;;;;;;5024819;28;20080;-82
2022/03/08 11:45:11;;;;;;;12.77;4.95;;;;;;;;;;5018007;28;20068;-82
2022/03/08 11:47:44;;;;;;;6.35;4.60;;;;;;;;;;5030353;28;20121;-83
2022/03/08 11:50:39;;;;;;;6.80;5.38;;;;;;;;;;5021758;28;20121;-82
2022/03/08 11:53:08;;;;;;;8.73;4.82;;;6.90;91.70;;;;;;5003886;28;20112;-81
2022/03/08 11:55:38;;;;;;;7.50;5.07;;;8.50;69.80;;;;;;5021201;28;20512;-81
2022/03/08 11:58:04;;;;;;;7.40;5.20;;;;;;;;;;5024170;28;20041;-82
2022/03/08 12:00:37;;;;;;;7.47;4.63;;;8.50;69.90;;;;;;5029231;28;20053;-82
2022/03/08 12:03:10;;;;;;;10.13;4.88;;;8.60;69.00;;;;;;5004002;28;20037;-82
2022/03/08 12:06:04;;;;;;;7.82;5.55;;;8.60;68.80;;;;;;5048490;28;20049;-82
2022/03/08 12:08:49;;;;;;;5.78;4.30;;;;;;;;;;5010200;28;20060;-82
2022/03/08 12:11:29;;;;;;;7.90;4.22;;;8.70;69.10;;;;;;5026092;28;20466;-82
2022/03/08 12:14:16;;;;;;;8.57;4.75;;;;;;;;;;5026396;28;20049;-81
2022/03/08 12:16:44;;;;;;;11.32;4.68;;;;;;;;;;5025272;28;20583;-82
2022/03/08 12:19:11;;;;;;;14.15;4.90;;;;;;;;;;5008278;28;20381;-81
2022/03/08 12:21:39;;;;;;;7.75;4.70;;;;;;;;;;5019399;28;20049;-82
2022/03/08 12:24:08;;;;;;;8.77;4.15;;;8.90;67.00;;;;;;5024587;28;20041;-82
2022/03/08 12:26:50;;;;;;;5.30;3.95;;;9.00;66.20;;;;;;5022899;28;20045;-82
2022/03/08 12:29:43;;;;;;;6.70;4.70;;;;;;;;;;5000714;28;20523;-82
2022/03/08 12:32:13;;;;;;;7.35;4.53;;;;;;;;;;4943158;28;20342;-82
2022/03/08 12:34:47;;;;;;;8.75;4.68;;;9.10;64.90;;;;;;5002045;28;20492;-82
2022/03/08 12:37:25;;;;;;;8.35;5.07;;;9.20;65.50;;;;;;4993272;28;20084;-82
2022/03/08 12:39:59;;;;;;;6.25;4.40;;;9.20;63.60;;;;;;5018984;28;20493;-82
2022/03/08 12:42:26;;;;;;;6.10;4.18;;;;;;;;;;5006153;28;20042;-82
2022/03/08 12:44:54;;;;;;;6.72;4.68;;;;;;;;;;5012844;28;20446;-82
2022/03/08 12:47:20;;;;;;;7.18;4.75;;;;;;;;;;5018925;28;20072;-82
2022/03/08 12:49:48;;;;;;;7.32;4.78;;;9.30;65.30;;;;;;5016668;28;20104;-82
2022/03/08 12:52:16;;;;;;;6.15;4.30;;;9.40;65.00;;;;;;5009325;28;20108;-82
2022/03/08 12:54:47;;;;;;;6.63;3.65;;;9.50;64.60;;;;;;5024207;28;20045;-82
2022/03/08 12:57:15;;;;;;;5.85;3.95;;;9.60;63.90;;;;;;5023950;28;20091;-82
2022/03/08 12:59:42;;;;;;;5.65;3.83;;;;;;;;;;5007439;28;20037;-82
2022/03/08 13:02:21;;;;;;;4.47;3.42;;;;;;;;;;5025291;28;20119;-82
2022/03/08 13:04:47;;;;;;;7.82;4.22;;;;;;;;;;5024734;28;20448;-82
2022/03/08 13:07:22;;;;;;;5.38;3.95;;;;;;;;;;5016007;28;20201;-82
2022/03/08 13:09:53;;;;;;;5.95;4.05;;;;;;;;;;5024640;28;20049;-82
2022/03/08 13:12:31;;;;;;;9.30;4.00;;;;;;;;;;5016982;28;20225;-82
2022/03/08 13:15:08;;;;;;;5.32;3.67;;;;;;;;;;5023175;28;20056;-82
2022/03/08 13:17:34;;;;;;;7.60;4.55;;;;;;;;;;5020571;28;20356;-82
2022/03/08 13:20:01;;;;;;;4.80;3.95;;;;;;;;;;5040160;28;20047;-83
2022/03/08 13:22:30;;;;;;;10.18;3.78;;;;;;;;;;4995193;28;20457;-82
2022/03/08 13:25:09;;;;;;;5.30;3.78;;;;;;;;;;5005688;28;20130;-82
2022/03/08 13:27:54;;;;;;;6.20;4.50;;;;;;;;;;5008402;28;20061;-82
2022/03/08 13:30:31;;;;;;;5.45;3.38;;;;;;;;;;5021069;28;20121;-82